<?xml version='1.0' encoding='UTF-8'?><gpx version="1.1" creator="JPX - https://github.com/jenetics/jpx" xmlns="http://www.topografix.com/GPX/1/1"><trk><trkseg><trkpt lat="39.54717120051662" lon="8.656969157981012"><ele>92.85714285714286</ele><time>2026-03-19T14:07:26.999Z</time></trkpt><trkpt lat="39.547138082912454" lon="8.656890607119976"><ele>92.71428571428572</ele><time>2026-03-19T14:07:32.999Z</time></trkpt><trkpt lat="39.54708422901203" lon="8.65680318098606"><ele>92.57142857142858</ele><time>2026-03-19T14:07:36.999Z</time></trkpt><trkpt lat="39.54705029115853" lon="8.656721898102326"><ele>92.42857142857143</ele><time>2026-03-19T14:07:40.999Z</time></trkpt><trkpt lat="39.54702597361848" lon="8.656636446369069"><ele>92.28571428571428</ele><time>2026-03-19T14:07:45.999Z</time></trkpt><trkpt lat="39.547001087748356" lon="8.656554948692287"><ele>92.14285714285715</ele><time>2026-03-19T14:07:49.999Z</time></trkpt><trkpt lat="39.546979448565786" lon="8.656467188994002"><ele>92.0</ele><time>2026-03-19T14:07:53.999Z</time></trkpt><trkpt lat="39.54697110565524" lon="8.656381874270242"><ele>92.28571428571429</ele><time>2026-03-19T14:07:58.998Z</time></trkpt><trkpt lat="39.54695778797602" lon="8.656287570780618"><ele>92.57142857142857</ele><time>2026-03-19T14:08:02.998Z</time></trkpt><trkpt lat="39.546952650024345" lon="8.65619261279748"><ele>92.85714285714286</ele><time>2026-03-19T14:08:05.998Z</time></trkpt><trkpt lat="39.546948986744255" lon="8.656099602311203"><ele>93.14285714285714</ele><time>2026-03-19T14:08:07.998Z</time></trkpt><trkpt lat="39.546929707439226" lon="8.656006077963585"><ele>93.42857142857142</ele><time>2026-03-19T14:08:10.998Z</time></trkpt><trkpt lat="39.54690917968407" lon="8.655921654853168"><ele>93.71428571428571</ele><time>2026-03-19T14:08:18.998Z</time></trkpt><trkpt lat="39.54689437771646" lon="8.655838994878572"><ele>94.0</ele><time>2026-03-19T14:08:22.998Z</time></trkpt><trkpt lat="39.54686907687457" lon="8.655763804443595"><ele>94.0</ele><time>2026-03-19T14:08:25.998Z</time></trkpt><trkpt lat="39.546838718674906" lon="8.655659176583159"><ele>94.0</ele><time>2026-03-19T14:08:28.998Z</time></trkpt><trkpt lat="39.546823324695076" lon="8.655541189836764"><ele>94.0</ele><time>2026-03-19T14:08:31.998Z</time></trkpt><trkpt lat="39.546793051068555" lon="8.655462234630194"><ele>94.0</ele><time>2026-03-19T14:08:33.998Z</time></trkpt><trkpt lat="39.54676956007296" lon="8.655377736343802"><ele>94.0</ele><time>2026-03-19T14:08:35.998Z</time></trkpt><trkpt lat="39.54675591016645" lon="8.65528153796045"><ele>94.0</ele><time>2026-03-19T14:08:37.998Z</time></trkpt><trkpt lat="39.546742564385035" lon="8.65519408379523"><ele>94.0</ele><time>2026-03-19T14:08:39.998Z</time></trkpt><trkpt lat="39.54672748511286" lon="8.655104431157813"><ele>94.0</ele><time>2026-03-19T14:08:41.998Z</time></trkpt><trkpt lat="39.54672164569464" lon="8.655016167563662"><ele>94.0</ele><time>2026-03-19T14:08:43.998Z</time></trkpt><trkpt lat="39.546722537601894" lon="8.654915438565865"><ele>94.0</ele><time>2026-03-19T14:08:45.998Z</time></trkpt><trkpt lat="39.54670928376034" lon="8.654825722857407"><ele>94.0</ele><time>2026-03-19T14:08:47.998Z</time></trkpt><trkpt lat="39.546682733483685" lon="8.65471911443255"><ele>94.0</ele><time>2026-03-19T14:08:50.998Z</time></trkpt><trkpt lat="39.546661538749376" lon="8.654603718751707"><ele>94.0</ele><time>2026-03-19T14:08:53.998Z</time></trkpt><trkpt lat="39.54665027534549" lon="8.654489282305786"><ele>94.0</ele><time>2026-03-19T14:08:56.998Z</time></trkpt><trkpt lat="39.54662088847464" lon="8.654387071210884"><ele>94.0</ele><time>2026-03-19T14:09:00.001Z</time></trkpt><trkpt lat="39.54655927453619" lon="8.654350804920966"><ele>94.0</ele><time>2026-03-19T14:09:05.001Z</time></trkpt><trkpt lat="39.54649608781386" lon="8.65432914379488"><ele>94.0</ele><time>2026-03-19T14:09:10.001Z</time></trkpt><trkpt lat="39.54642303271881" lon="8.654310133253198"><ele>94.0</ele><time>2026-03-19T14:09:16.001Z</time></trkpt><trkpt lat="39.54636349367317" lon="8.654283373419196"><ele>94.0</ele><time>2026-03-19T14:09:21.001Z</time></trkpt><trkpt lat="39.546298772817934" lon="8.65424835858746"><ele>94.0</ele><time>2026-03-19T14:09:27Z</time></trkpt><trkpt lat="39.54623147466608" lon="8.654240363379882"><ele>94.0</ele><time>2026-03-19T14:09:32Z</time></trkpt><trkpt lat="39.54616641552756" lon="8.654233990282181"><ele>94.0</ele><time>2026-03-19T14:09:36Z</time></trkpt><trkpt lat="39.54609691357035" lon="8.654226739340935"><ele>94.0</ele><time>2026-03-19T14:09:41Z</time></trkpt><trkpt lat="39.54602359119931" lon="8.654229017185383"><ele>94.0</ele><time>2026-03-19T14:09:59Z</time></trkpt><trkpt lat="39.54596071341621" lon="8.654220598294243"><ele>94.0</ele><time>2026-03-19T14:10:04Z</time></trkpt><trkpt lat="39.545889976184085" lon="8.654198524015232"><ele>94.0</ele><time>2026-03-19T14:10:10Z</time></trkpt><trkpt lat="39.545817958918256" lon="8.654189058301284"><ele>94.0</ele><time>2026-03-19T14:10:15Z</time></trkpt><trkpt lat="39.54574772441729" lon="8.654179251204381"><ele>94.0</ele><time>2026-03-19T14:10:20Z</time></trkpt><trkpt lat="39.54567718334612" lon="8.654153712652255"><ele>94.0</ele><time>2026-03-19T14:10:26Z</time></trkpt><trkpt lat="39.54559937403095" lon="8.654150814153379"><ele>94.0</ele><time>2026-03-19T14:10:31Z</time></trkpt><trkpt lat="39.545528620108485" lon="8.654134709677459"><ele>94.0</ele><time>2026-03-19T14:10:36Z</time></trkpt><trkpt lat="39.545465435407415" lon="8.654122229396142"><ele>94.0</ele><time>2026-03-19T14:10:40Z</time></trkpt><trkpt lat="39.54538555086318" lon="8.654115058409742"><ele>94.0</ele><time>2026-03-19T14:10:45Z</time></trkpt><trkpt lat="39.54531326347285" lon="8.654086582774555"><ele>94.14285714285714</ele><time>2026-03-19T14:10:50Z</time></trkpt><trkpt lat="39.54524105333457" lon="8.654081766246222"><ele>94.28571428571428</ele><time>2026-03-19T14:10:55Z</time></trkpt><trkpt lat="39.54517764253701" lon="8.654096118387073"><ele>94.42857142857143</ele><time>2026-03-19T14:11:00Z</time></trkpt><trkpt lat="39.54510687021232" lon="8.654108816059926"><ele>94.57142857142857</ele><time>2026-03-19T14:11:06Z</time></trkpt><trkpt lat="39.5450405734566" lon="8.654109031014269"><ele>94.71428571428572</ele><time>2026-03-19T14:11:12.999Z</time></trkpt><trkpt lat="39.54497231330729" lon="8.654098696758018"><ele>94.85714285714286</ele><time>2026-03-19T14:11:18.999Z</time></trkpt><trkpt lat="39.54489428306164" lon="8.654065610726839"><ele>95.0</ele><time>2026-03-19T14:11:23.999Z</time></trkpt><trkpt lat="39.544833357677085" lon="8.654037231771396"><ele>95.0</ele><time>2026-03-19T14:11:28.999Z</time></trkpt><trkpt lat="39.54477080679445" lon="8.654020254107142"><ele>95.0</ele><time>2026-03-19T14:11:33.999Z</time></trkpt><trkpt lat="39.54470556656374" lon="8.653984925636522"><ele>95.0</ele><time>2026-03-19T14:11:38.999Z</time></trkpt><trkpt lat="39.544630843953065" lon="8.65397096797245"><ele>95.0</ele><time>2026-03-19T14:11:44.999Z</time></trkpt><trkpt lat="39.54456403976786" lon="8.653963806339613"><ele>95.0</ele><time>2026-03-19T14:11:49.999Z</time></trkpt><trkpt lat="39.544497111544906" lon="8.653966888170126"><ele>95.0</ele><time>2026-03-19T14:11:55.999Z</time></trkpt><trkpt lat="39.54443247656932" lon="8.65392100974737"><ele>95.0</ele><time>2026-03-19T14:12:01.999Z</time></trkpt><trkpt lat="39.54436401667566" lon="8.653889370511077"><ele>95.28571428571429</ele><time>2026-03-19T14:12:07.999Z</time></trkpt><trkpt lat="39.544306563473214" lon="8.653848340732834"><ele>95.57142857142858</ele><time>2026-03-19T14:12:12.999Z</time></trkpt><trkpt lat="39.54423623699005" lon="8.653822841761736"><ele>95.85714285714286</ele><time>2026-03-19T14:12:17.999Z</time></trkpt><trkpt lat="39.544172245093606" lon="8.653784871831382"><ele>96.14285714285714</ele><time>2026-03-19T14:12:23.999Z</time></trkpt><trkpt lat="39.544102924425296" lon="8.6537661602352"><ele>96.42857142857143</ele><time>2026-03-19T14:12:29.999Z</time></trkpt><trkpt lat="39.544036584086456" lon="8.653746006038983"><ele>96.71428571428571</ele><time>2026-03-19T14:12:34.999Z</time></trkpt><trkpt lat="39.543966888261984" lon="8.653735009782197"><ele>97.0</ele><time>2026-03-19T14:12:39.999Z</time></trkpt><trkpt lat="39.54389937885559" lon="8.653714466337034"><ele>97.0</ele><time>2026-03-19T14:12:44.999Z</time></trkpt><trkpt lat="39.54383567023383" lon="8.653726288761233"><ele>97.0</ele><time>2026-03-19T14:12:54.999Z</time></trkpt><trkpt lat="39.543779197701674" lon="8.65367724172811"><ele>97.0</ele><time>2026-03-19T14:13:06.999Z</time></trkpt><trkpt lat="39.54370361053022" lon="8.653661005370939"><ele>97.0</ele><time>2026-03-19T14:13:11.999Z</time></trkpt><trkpt lat="39.54362723462519" lon="8.653663298006979"><ele>97.0</ele><time>2026-03-19T14:13:16.998Z</time></trkpt><trkpt lat="39.54357111508396" lon="8.653613476389694"><ele>97.0</ele><time>2026-03-19T14:13:25.998Z</time></trkpt><trkpt lat="39.543510575712496" lon="8.653562457934743"><ele>97.0</ele><time>2026-03-19T14:13:31.998Z</time></trkpt><trkpt lat="39.54344686728759" lon="8.653548357113054"><ele>97.0</ele><time>2026-03-19T14:13:37.998Z</time></trkpt><trkpt lat="39.543384177764295" lon="8.653532793668875"><ele>97.0</ele><time>2026-03-19T14:13:43.998Z</time></trkpt><trkpt lat="39.543341786159615" lon="8.653461435853153"><ele>97.0</ele><time>2026-03-19T14:14:07.998Z</time></trkpt><trkpt lat="39.543271927418644" lon="8.653445020381762"><ele>97.0</ele><time>2026-03-19T14:14:13.998Z</time></trkpt><trkpt lat="39.543195953984274" lon="8.653439804274136"><ele>97.0</ele><time>2026-03-19T14:14:19.998Z</time></trkpt><trkpt lat="39.54310790335356" lon="8.653420915265599"><ele>97.0</ele><time>2026-03-19T14:14:22.998Z</time></trkpt><trkpt lat="39.54304421349646" lon="8.653396872410285"><ele>97.0</ele><time>2026-03-19T14:14:24.998Z</time></trkpt><trkpt lat="39.54296499888859" lon="8.653377773809414"><ele>97.0</ele><time>2026-03-19T14:14:27.998Z</time></trkpt><trkpt lat="39.54290683919129" lon="8.65332886075109"><ele>97.0</ele><time>2026-03-19T14:14:37.998Z</time></trkpt><trkpt lat="39.542845252136104" lon="8.653308860403623"><ele>97.0</ele><time>2026-03-19T14:14:42.998Z</time></trkpt><trkpt lat="39.54277273296224" lon="8.653311736286412"><ele>97.0</ele><time>2026-03-19T14:14:48.998Z</time></trkpt><trkpt lat="39.54270604375265" lon="8.653285032708215"><ele>97.0</ele><time>2026-03-19T14:14:54.998Z</time></trkpt><trkpt lat="39.54263525407962" lon="8.653295099284584"><ele>97.0</ele><time>2026-03-19T14:15:00.998Z</time></trkpt><trkpt lat="39.54257154805146" lon="8.653272756093102"><ele>97.0</ele><time>2026-03-19T14:15:05.998Z</time></trkpt><trkpt lat="39.54250220816774" lon="8.653293592391382"><ele>97.14285714285714</ele><time>2026-03-19T14:15:10.998Z</time></trkpt><trkpt lat="39.542433322745225" lon="8.653304694672336"><ele>97.28571428571429</ele><time>2026-03-19T14:15:14.998Z</time></trkpt><trkpt lat="39.54236137182721" lon="8.653294543258646"><ele>97.42857142857143</ele><time>2026-03-19T14:15:18.998Z</time></trkpt><trkpt lat="39.54229129206025" lon="8.653310755666201"><ele>97.57142857142857</ele><time>2026-03-19T14:15:23.997Z</time></trkpt><trkpt lat="39.54221860054312" lon="8.65332061812158"><ele>97.71428571428572</ele><time>2026-03-19T14:15:30.997Z</time></trkpt><trkpt lat="39.54214498076927" lon="8.653328496576767"><ele>97.85714285714286</ele><time>2026-03-19T14:15:36.997Z</time></trkpt><trkpt lat="39.54207371456448" lon="8.653322108195564"><ele>98.0</ele><time>2026-03-19T14:15:42.997Z</time></trkpt><trkpt lat="39.54200564295322" lon="8.65333667653924"><ele>98.0</ele><time>2026-03-19T14:15:48.997Z</time></trkpt><trkpt lat="39.54194290570098" lon="8.65334806661315"><ele>98.0</ele><time>2026-03-19T14:15:53.997Z</time></trkpt><trkpt lat="39.541880484462915" lon="8.65335981932834"><ele>98.0</ele><time>2026-03-19T14:15:58.997Z</time></trkpt><trkpt lat="39.54180790232967" lon="8.653358879119372"><ele>98.0</ele><time>2026-03-19T14:16:05.001Z</time></trkpt><trkpt lat="39.5417393764754" lon="8.653389593873218"><ele>98.0</ele><time>2026-03-19T14:16:11.001Z</time></trkpt><trkpt lat="39.541676875213234" lon="8.653416602287738"><ele>98.0</ele><time>2026-03-19T14:16:15Z</time></trkpt><trkpt lat="39.541612845295774" lon="8.653427246903517"><ele>98.0</ele><time>2026-03-19T14:16:20Z</time></trkpt><trkpt lat="39.541548831799744" lon="8.653448304487293"><ele>98.0</ele><time>2026-03-19T14:16:33Z</time></trkpt><trkpt lat="39.54150494692073" lon="8.653506876961613"><ele>98.0</ele><time>2026-03-19T14:16:41Z</time></trkpt><trkpt lat="39.54147334583337" lon="8.653592249100985"><ele>98.0</ele><time>2026-03-19T14:16:46Z</time></trkpt><trkpt lat="39.541488248303416" lon="8.653682171940284"><ele>98.0</ele><time>2026-03-19T14:16:50Z</time></trkpt><trkpt lat="39.5415053802881" lon="8.653762807262273"><ele>98.0</ele><time>2026-03-19T14:16:55Z</time></trkpt><trkpt lat="39.54151258210638" lon="8.653863506024345"><ele>98.0</ele><time>2026-03-19T14:16:59Z</time></trkpt><trkpt lat="39.541519723545605" lon="8.653957381154282"><ele>98.0</ele><time>2026-03-19T14:17:05Z</time></trkpt><trkpt lat="39.5415296235098" lon="8.654047813008468"><ele>98.0</ele><time>2026-03-19T14:17:09Z</time></trkpt><trkpt lat="39.541538822858485" lon="8.654131053794265"><ele>98.0</ele><time>2026-03-19T14:17:13Z</time></trkpt><trkpt lat="39.54155609064544" lon="8.65422075072427"><ele>98.0</ele><time>2026-03-19T14:17:19Z</time></trkpt><trkpt lat="39.54157677426454" lon="8.654298682107344"><ele>98.0</ele><time>2026-03-19T14:17:55.999Z</time></trkpt><trkpt lat="39.54155634355065" lon="8.654385356663889"><ele>98.0</ele><time>2026-03-19T14:17:57.999Z</time></trkpt><trkpt lat="39.54152752965691" lon="8.654468000373505"><ele>98.0</ele><time>2026-03-19T14:17:59.999Z</time></trkpt><trkpt lat="39.5415039267436" lon="8.65456038800761"><ele>98.0</ele><time>2026-03-19T14:18:02.999Z</time></trkpt><trkpt lat="39.541477330078486" lon="8.654647000316979"><ele>97.99999999999999</ele><time>2026-03-19T14:18:05.999Z</time></trkpt><trkpt lat="39.54145141675894" lon="8.654724232521838"><ele>98.0</ele><time>2026-03-19T14:18:07.999Z</time></trkpt><trkpt lat="39.541442973326475" lon="8.654829847663464"><ele>98.0</ele><time>2026-03-19T14:18:10.999Z</time></trkpt><trkpt lat="39.54141853872189" lon="8.654934518828604"><ele>98.0</ele><time>2026-03-19T14:18:13.999Z</time></trkpt><trkpt lat="39.541398150200415" lon="8.65503662646588"><ele>97.99999999999999</ele><time>2026-03-19T14:18:16.999Z</time></trkpt><trkpt lat="39.54137519166901" lon="8.655126134918676"><ele>98.0</ele><time>2026-03-19T14:18:19.999Z</time></trkpt><trkpt lat="39.54136059171906" lon="8.655208229506703"><ele>98.14285714285714</ele><time>2026-03-19T14:18:22.999Z</time></trkpt><trkpt lat="39.541358475887165" lon="8.655296592148131"><ele>98.28571428571428</ele><time>2026-03-19T14:18:25.999Z</time></trkpt><trkpt lat="39.54134709213246" lon="8.655376980809386"><ele>98.42857142857143</ele><time>2026-03-19T14:18:28.999Z</time></trkpt><trkpt lat="39.54133403173573" lon="8.655477548820405"><ele>98.57142857142857</ele><time>2026-03-19T14:18:32.999Z</time></trkpt><trkpt lat="39.5413240156797" lon="8.655569917315534"><ele>98.71428571428571</ele><time>2026-03-19T14:18:37.999Z</time></trkpt><trkpt lat="39.54127968199493" lon="8.655654033752404"><ele>98.85714285714286</ele><time>2026-03-19T14:18:42.999Z</time></trkpt><trkpt lat="39.54125754769891" lon="8.655735917068027"><ele>99.0</ele><time>2026-03-19T14:18:46.999Z</time></trkpt><trkpt lat="39.54122572109728" lon="8.655810374459874"><ele>99.0</ele><time>2026-03-19T14:18:49.999Z</time></trkpt><trkpt lat="39.54119407013269" lon="8.655896268772839"><ele>99.0</ele><time>2026-03-19T14:18:52.999Z</time></trkpt><trkpt lat="39.54116493119061" lon="8.655987657534546"><ele>99.0</ele><time>2026-03-19T14:18:56.999Z</time></trkpt><trkpt lat="39.54116208658954" lon="8.656085458341163"><ele>99.0</ele><time>2026-03-19T14:19:00.999Z</time></trkpt><trkpt lat="39.541160790589046" lon="8.656184519280602"><ele>99.0</ele><time>2026-03-19T14:19:04.999Z</time></trkpt><trkpt lat="39.54119963801643" lon="8.656107959143627"><ele>99.0</ele><time>2026-03-19T14:25:10.999Z</time></trkpt><trkpt lat="39.54125481878929" lon="8.65604076990974"><ele>99.0</ele><time>2026-03-19T14:25:38.999Z</time></trkpt><trkpt lat="39.54126715400717" lon="8.655957163127958"><ele>99.0</ele><time>2026-03-19T14:25:43.998Z</time></trkpt><trkpt lat="39.541288199396995" lon="8.65587248338126"><ele>99.0</ele><time>2026-03-19T14:25:47.998Z</time></trkpt><trkpt lat="39.54126259823772" lon="8.655779869648134"><ele>99.0</ele><time>2026-03-19T14:26:11.998Z</time></trkpt><trkpt lat="39.541297896392756" lon="8.655705267950747"><ele>99.0</ele><time>2026-03-19T14:26:18.998Z</time></trkpt><trkpt lat="39.54133462107554" lon="8.655617809285166"><ele>99.0</ele><time>2026-03-19T14:26:23.998Z</time></trkpt><trkpt lat="39.54134300008335" lon="8.65553479510309"><ele>99.0</ele><time>2026-03-19T14:26:28.998Z</time></trkpt><trkpt lat="39.54135134082207" lon="8.655441210207151"><ele>99.0</ele><time>2026-03-19T14:26:31.998Z</time></trkpt><trkpt lat="39.54137729907094" lon="8.655342147595668"><ele>99.0</ele><time>2026-03-19T14:26:34.998Z</time></trkpt><trkpt lat="39.541403167744846" lon="8.655260298005514"><ele>99.0</ele><time>2026-03-19T14:26:37.998Z</time></trkpt><trkpt lat="39.541390784158956" lon="8.655362951474295"><ele>99.0</ele><time>2026-03-19T14:27:06.998Z</time></trkpt><trkpt lat="39.54135175453917" lon="8.65545424372982"><ele>99.0</ele><time>2026-03-19T14:27:09.998Z</time></trkpt><trkpt lat="39.54133455262269" lon="8.655551228581764"><ele>99.0</ele><time>2026-03-19T14:27:12.998Z</time></trkpt><trkpt lat="39.54137470739124" lon="8.655472656353833"><ele>99.0</ele><time>2026-03-19T14:27:23.998Z</time></trkpt><trkpt lat="39.54129308293444" lon="8.65549255356189"><ele>99.0</ele><time>2026-03-19T14:27:41.998Z</time></trkpt><trkpt lat="39.54120143595848" lon="8.655470103298326"><ele>99.0</ele><time>2026-03-19T14:27:43.998Z</time></trkpt><trkpt lat="39.541132566838186" lon="8.655454287612496"><ele>99.0</ele><time>2026-03-19T14:27:45.998Z</time></trkpt><trkpt lat="39.54104485608747" lon="8.655458612588141"><ele>99.0</ele><time>2026-03-19T14:27:47.998Z</time></trkpt><trkpt lat="39.54094740732102" lon="8.655454718510779"><ele>99.0</ele><time>2026-03-19T14:27:49.998Z</time></trkpt><trkpt lat="39.54084703884494" lon="8.655456023971647"><ele>99.0</ele><time>2026-03-19T14:27:51.997Z</time></trkpt><trkpt lat="39.54077159449286" lon="8.655427338523538"><ele>99.0</ele><time>2026-03-19T14:27:54.997Z</time></trkpt><trkpt lat="39.54085059212775" lon="8.655485695642408"><ele>99.0</ele><time>2026-03-19T14:28:04.997Z</time></trkpt><trkpt lat="39.54092741117213" lon="8.655483206124648"><ele>99.0</ele><time>2026-03-19T14:28:06.997Z</time></trkpt><trkpt lat="39.541001100245104" lon="8.655477797534113"><ele>99.0</ele><time>2026-03-19T14:28:08.997Z</time></trkpt><trkpt lat="39.54107291603416" lon="8.655529418916549"><ele>99.0</ele><time>2026-03-19T14:28:10.997Z</time></trkpt><trkpt lat="39.54114144841645" lon="8.655562639606218"><ele>99.0</ele><time>2026-03-19T14:28:12.997Z</time></trkpt><trkpt lat="39.54120731665062" lon="8.65559528535071"><ele>99.0</ele><time>2026-03-19T14:28:14.997Z</time></trkpt><trkpt lat="39.54127130669677" lon="8.6555658756833"><ele>99.0</ele><time>2026-03-19T14:28:18.997Z</time></trkpt><trkpt lat="39.54132176489407" lon="8.65551019389695"><ele>99.0</ele><time>2026-03-19T14:28:27.997Z</time></trkpt><trkpt lat="39.54131693598861" lon="8.655373696195115"><ele>99.0</ele><time>2026-03-19T14:29:55.997Z</time></trkpt><trkpt lat="39.54133892796862" lon="8.655292262174475"><ele>99.0</ele><time>2026-03-19T14:30:01.996Z</time></trkpt><trkpt lat="39.54137228001652" lon="8.655181571205043"><ele>99.0</ele><time>2026-03-19T14:30:04.996Z</time></trkpt><trkpt lat="39.541406991693236" lon="8.655101804551242"><ele>98.83333333333333</ele><time>2026-03-19T14:30:07.996Z</time></trkpt><trkpt lat="39.541431653612506" lon="8.655019157652447"><ele>98.66666666666666</ele><time>2026-03-19T14:30:13.999Z</time></trkpt><trkpt lat="39.54146976682335" lon="8.654936518362343"><ele>98.5</ele><time>2026-03-19T14:30:18.999Z</time></trkpt><trkpt lat="39.54147754253454" lon="8.654837484408507"><ele>98.33333333333333</ele><time>2026-03-19T14:30:24.999Z</time></trkpt><trkpt lat="39.541492555569846" lon="8.654747491168061"><ele>98.16666666666666</ele><time>2026-03-19T14:30:30.999Z</time></trkpt><trkpt lat="39.54153059201364" lon="8.654647170401137"><ele>98.0</ele><time>2026-03-19T14:30:35.999Z</time></trkpt><trkpt lat="39.54155057704944" lon="8.654546240337757"><ele>97.99999999999999</ele><time>2026-03-19T14:30:39.999Z</time></trkpt><trkpt lat="39.5415688988045" lon="8.654453699039856"><ele>98.0</ele><time>2026-03-19T14:30:42.999Z</time></trkpt><trkpt lat="39.541581586566984" lon="8.654350952907162"><ele>98.0</ele><time>2026-03-19T14:30:45.999Z</time></trkpt><trkpt lat="39.54158837021844" lon="8.65422495949394"><ele>98.0</ele><time>2026-03-19T14:30:48.999Z</time></trkpt><trkpt lat="39.54159789932235" lon="8.654138590240805"><ele>97.99999999999999</ele><time>2026-03-19T14:30:50.999Z</time></trkpt><trkpt lat="39.54160440561958" lon="8.6540527908487"><ele>98.0</ele><time>2026-03-19T14:30:52.999Z</time></trkpt><trkpt lat="39.54159503449735" lon="8.653952449802844"><ele>98.0</ele><time>2026-03-19T14:30:54.999Z</time></trkpt><trkpt lat="39.5415922534424" lon="8.653864898329154"><ele>98.0</ele><time>2026-03-19T14:30:56.999Z</time></trkpt><trkpt lat="39.541578918118816" lon="8.653747436532488"><ele>98.0</ele><time>2026-03-19T14:30:59.999Z</time></trkpt><trkpt lat="39.541572589357656" lon="8.653664648412477"><ele>98.0</ele><time>2026-03-19T14:31:01.999Z</time></trkpt><trkpt lat="39.541568554433034" lon="8.653580282466454"><ele>98.0</ele><time>2026-03-19T14:31:03.999Z</time></trkpt><trkpt lat="39.54156595294655" lon="8.653468360242979"><ele>98.0</ele><time>2026-03-19T14:31:07Z</time></trkpt><trkpt lat="39.54155935161005" lon="8.65337822467357"><ele>98.0</ele><time>2026-03-19T14:31:11Z</time></trkpt><trkpt lat="39.54154020573985" lon="8.653296017457729"><ele>98.0</ele><time>2026-03-19T14:31:16Z</time></trkpt><trkpt lat="39.541520047652284" lon="8.653207338074242"><ele>98.0</ele><time>2026-03-19T14:31:21Z</time></trkpt><trkpt lat="39.54151239915655" lon="8.653124976213338"><ele>98.0</ele><time>2026-03-19T14:31:27Z</time></trkpt><trkpt lat="39.54150600135458" lon="8.653038831655937"><ele>98.0</ele><time>2026-03-19T14:31:33Z</time></trkpt><trkpt lat="39.541503275481624" lon="8.652951761338254"><ele>98.0</ele><time>2026-03-19T14:31:39Z</time></trkpt><trkpt lat="39.541505284056946" lon="8.652853111689264"><ele>98.0</ele><time>2026-03-19T14:31:46Z</time></trkpt><trkpt lat="39.54149476091676" lon="8.652765686104685"><ele>98.0</ele><time>2026-03-19T14:31:51Z</time></trkpt><trkpt lat="39.5415171282746" lon="8.652685661427501"><ele>98.14285714285714</ele><time>2026-03-19T14:31:56Z</time></trkpt><trkpt lat="39.54153121524093" lon="8.652605318400253"><ele>98.28571428571428</ele><time>2026-03-19T14:32:02Z</time></trkpt><trkpt lat="39.54152205011615" lon="8.652514456164425"><ele>98.42857142857143</ele><time>2026-03-19T14:32:07Z</time></trkpt><trkpt lat="39.541518377003925" lon="8.652432223537884"><ele>98.57142857142857</ele><time>2026-03-19T14:32:11Z</time></trkpt><trkpt lat="39.54151742947065" lon="8.652347907468139"><ele>98.71428571428571</ele><time>2026-03-19T14:32:16Z</time></trkpt><trkpt lat="39.5415103152511" lon="8.652255138311759"><ele>98.85714285714286</ele><time>2026-03-19T14:32:21Z</time></trkpt><trkpt lat="39.541512378879446" lon="8.652164144843061"><ele>99.0</ele><time>2026-03-19T14:32:26Z</time></trkpt><trkpt lat="39.54152566368288" lon="8.652079877061551"><ele>99.0</ele><time>2026-03-19T14:32:32Z</time></trkpt><trkpt lat="39.54152425954746" lon="8.65199414693855"><ele>99.0</ele><time>2026-03-19T14:32:37Z</time></trkpt><trkpt lat="39.54152336351423" lon="8.651907742652941"><ele>99.0</ele><time>2026-03-19T14:32:42Z</time></trkpt><trkpt lat="39.54152364830487" lon="8.651825923046415"><ele>99.0</ele><time>2026-03-19T14:32:48Z</time></trkpt><trkpt lat="39.5415199580977" lon="8.651734221774277"><ele>99.0</ele><time>2026-03-19T14:32:53.999Z</time></trkpt><trkpt lat="39.54150783081617" lon="8.651641826395968"><ele>99.0</ele><time>2026-03-19T14:32:59.999Z</time></trkpt><trkpt lat="39.54147977170013" lon="8.65155361343419"><ele>99.0</ele><time>2026-03-19T14:33:04.999Z</time></trkpt><trkpt lat="39.54146555819977" lon="8.651461450733828"><ele>99.0</ele><time>2026-03-19T14:33:10.999Z</time></trkpt><trkpt lat="39.541432704145116" lon="8.651375258303851"><ele>99.0</ele><time>2026-03-19T14:33:16.999Z</time></trkpt><trkpt lat="39.541411078618204" lon="8.651283171505456"><ele>99.0</ele><time>2026-03-19T14:33:22.999Z</time></trkpt><trkpt lat="39.541382413305875" lon="8.651205397621418"><ele>99.0</ele><time>2026-03-19T14:33:28.999Z</time></trkpt><trkpt lat="39.54136302173737" lon="8.651115503226988"><ele>99.0</ele><time>2026-03-19T14:33:35.999Z</time></trkpt><trkpt lat="39.54134723870553" lon="8.651027956373394"><ele>99.0</ele><time>2026-03-19T14:33:41.999Z</time></trkpt><trkpt lat="39.54131764260142" lon="8.650953093452266"><ele>99.0</ele><time>2026-03-19T14:33:45.999Z</time></trkpt><trkpt lat="39.54129621721074" lon="8.65086236141843"><ele>99.0</ele><time>2026-03-19T14:33:50.999Z</time></trkpt><trkpt lat="39.54132125714865" lon="8.65077819161118"><ele>99.0</ele><time>2026-03-19T14:33:57.999Z</time></trkpt><trkpt lat="39.541306745045745" lon="8.650692233567783"><ele>99.0</ele><time>2026-03-19T14:34:04.999Z</time></trkpt><trkpt lat="39.5413104652278" lon="8.650610725446887"><ele>99.0</ele><time>2026-03-19T14:34:10.999Z</time></trkpt><trkpt lat="39.54130121624027" lon="8.650513547517837"><ele>99.0</ele><time>2026-03-19T14:34:16.999Z</time></trkpt><trkpt lat="39.541296001998944" lon="8.650431914222997"><ele>99.0</ele><time>2026-03-19T14:34:20.999Z</time></trkpt><trkpt lat="39.54129963432681" lon="8.650338485440361"><ele>99.0</ele><time>2026-03-19T14:34:28.999Z</time></trkpt><trkpt lat="39.541307999567564" lon="8.650250137231822"><ele>99.0</ele><time>2026-03-19T14:34:33.999Z</time></trkpt><trkpt lat="39.541320427296995" lon="8.650166155023577"><ele>99.0</ele><time>2026-03-19T14:34:38.999Z</time></trkpt><trkpt lat="39.5413453401724" lon="8.650090901043237"><ele>99.0</ele><time>2026-03-19T14:34:44.999Z</time></trkpt><trkpt lat="39.54136438517785" lon="8.650003602940947"><ele>99.0</ele><time>2026-03-19T14:34:50.999Z</time></trkpt><trkpt lat="39.541382069528915" lon="8.64992269685533"><ele>99.0</ele><time>2026-03-19T14:34:55.999Z</time></trkpt><trkpt lat="39.54139669672262" lon="8.649835280089878"><ele>99.0</ele><time>2026-03-19T14:35:01.999Z</time></trkpt><trkpt lat="39.541386019871304" lon="8.649739489505762"><ele>99.0</ele><time>2026-03-19T14:35:06.999Z</time></trkpt><trkpt lat="39.541397298448196" lon="8.649653592505173"><ele>99.0</ele><time>2026-03-19T14:35:11.999Z</time></trkpt><trkpt lat="39.541417656203244" lon="8.649563957550487"><ele>99.0</ele><time>2026-03-19T14:35:17.999Z</time></trkpt><trkpt lat="39.54141576035813" lon="8.649470853148049"><ele>99.0</ele><time>2026-03-19T14:35:22.999Z</time></trkpt><trkpt lat="39.54141816787871" lon="8.64937369835388"><ele>99.0</ele><time>2026-03-19T14:35:27.999Z</time></trkpt><trkpt lat="39.541434856819286" lon="8.649289124981019"><ele>99.0</ele><time>2026-03-19T14:35:32.998Z</time></trkpt><trkpt lat="39.541433177610045" lon="8.649198796379348"><ele>99.0</ele><time>2026-03-19T14:35:40.998Z</time></trkpt><trkpt lat="39.54143642215116" lon="8.649104259235033"><ele>99.0</ele><time>2026-03-19T14:35:47.998Z</time></trkpt><trkpt lat="39.54146214823466" lon="8.649010789771681"><ele>98.85714285714286</ele><time>2026-03-19T14:35:53.998Z</time></trkpt><trkpt lat="39.541456447816095" lon="8.648919761426233"><ele>98.71428571428571</ele><time>2026-03-19T14:36:14.998Z</time></trkpt><trkpt lat="39.541462564345196" lon="8.64882073510506"><ele>98.57142857142857</ele><time>2026-03-19T14:36:18.998Z</time></trkpt><trkpt lat="39.54145974887074" lon="8.648713242756322"><ele>98.42857142857143</ele><time>2026-03-19T14:36:22.998Z</time></trkpt><trkpt lat="39.54146067939152" lon="8.64862542443689"><ele>98.28571428571428</ele><time>2026-03-19T14:36:26.998Z</time></trkpt><trkpt lat="39.54146371390397" lon="8.64852528645128"><ele>98.14285714285714</ele><time>2026-03-19T14:36:30.998Z</time></trkpt><trkpt lat="39.54145881188137" lon="8.648437178745567"><ele>98.0</ele><time>2026-03-19T14:36:34.998Z</time></trkpt><trkpt lat="39.54146531797811" lon="8.64835456303286"><ele>97.99999999999999</ele><time>2026-03-19T14:36:39.998Z</time></trkpt><trkpt lat="39.54143378299404" lon="8.648265599113621"><ele>98.0</ele><time>2026-03-19T14:36:43.998Z</time></trkpt><trkpt lat="39.54142200051656" lon="8.648159272289254"><ele>98.0</ele><time>2026-03-19T14:36:47.998Z</time></trkpt><trkpt lat="39.54142686042711" lon="8.648062932276574"><ele>98.0</ele><time>2026-03-19T14:36:51.998Z</time></trkpt><trkpt lat="39.5414002901685" lon="8.64797504694097"><ele>97.99999999999999</ele><time>2026-03-19T14:36:55.998Z</time></trkpt><trkpt lat="39.54138802721443" lon="8.6478896740967"><ele>98.0</ele><time>2026-03-19T14:36:59.998Z</time></trkpt><trkpt lat="39.54136964684714" lon="8.647791007513035"><ele>98.28571428571429</ele><time>2026-03-19T14:37:03.998Z</time></trkpt><trkpt lat="39.54134606936044" lon="8.64770458040816"><ele>98.57142857142857</ele><time>2026-03-19T14:37:06.998Z</time></trkpt><trkpt lat="39.54130793088282" lon="8.647610764207352"><ele>98.85714285714286</ele><time>2026-03-19T14:37:10.998Z</time></trkpt><trkpt lat="39.54128616343353" lon="8.647517750856771"><ele>99.14285714285714</ele><time>2026-03-19T14:37:14.998Z</time></trkpt><trkpt lat="39.54126434809501" lon="8.647422285096841"><ele>99.42857142857143</ele><time>2026-03-19T14:37:18.998Z</time></trkpt><trkpt lat="39.54124546315898" lon="8.647340138778649"><ele>99.71428571428572</ele><time>2026-03-19T14:37:22Z</time></trkpt><trkpt lat="39.54122265177282" lon="8.64725485801155"><ele>100.0</ele><time>2026-03-19T14:37:25Z</time></trkpt><trkpt lat="39.5411856750004" lon="8.647162773572854"><ele>100.00000000000001</ele><time>2026-03-19T14:37:28Z</time></trkpt><trkpt lat="39.54116053280228" lon="8.647067033386882"><ele>100.0</ele><time>2026-03-19T14:37:32Z</time></trkpt><trkpt lat="39.54113922011424" lon="8.646970485300951"><ele>100.0</ele><time>2026-03-19T14:37:36Z</time></trkpt><trkpt lat="39.54115310506113" lon="8.64688732904989"><ele>100.0</ele><time>2026-03-19T14:38:03Z</time></trkpt><trkpt lat="39.54119154865098" lon="8.646821493589382"><ele>100.0</ele><time>2026-03-19T14:38:32Z</time></trkpt><trkpt lat="39.54119294673326" lon="8.646731956137234"><ele>100.00000000000001</ele><time>2026-03-19T14:38:36Z</time></trkpt><trkpt lat="39.541197586891705" lon="8.64664377424375"><ele>100.0</ele><time>2026-03-19T14:38:41Z</time></trkpt><trkpt lat="39.54119217773974" lon="8.646558983191582"><ele>100.14285714285715</ele><time>2026-03-19T14:38:45Z</time></trkpt><trkpt lat="39.54122385247588" lon="8.646480936882435"><ele>100.28571428571429</ele><time>2026-03-19T14:38:50Z</time></trkpt><trkpt lat="39.54129243985022" lon="8.646485418400907"><ele>100.42857142857143</ele><time>2026-03-19T14:38:54Z</time></trkpt><trkpt lat="39.541360775328165" lon="8.64649657888687"><ele>100.57142857142858</ele><time>2026-03-19T14:38:58Z</time></trkpt><trkpt lat="39.541432355780394" lon="8.646497682445311"><ele>100.71428571428571</ele><time>2026-03-19T14:39:01Z</time></trkpt><trkpt lat="39.54149835927385" lon="8.646505704381898"><ele>100.85714285714286</ele><time>2026-03-19T14:39:04Z</time></trkpt><trkpt lat="39.541563232386636" lon="8.646497587086305"><ele>101.0</ele><time>2026-03-19T14:39:07Z</time></trkpt><trkpt lat="39.54163319253955" lon="8.646502363929823"><ele>101.0</ele><time>2026-03-19T14:39:14Z</time></trkpt><trkpt lat="39.54170015082825" lon="8.64648603497516"><ele>101.0</ele><time>2026-03-19T14:39:20Z</time></trkpt><trkpt lat="39.541771354809846" lon="8.646491519507062"><ele>101.0</ele><time>2026-03-19T14:39:24Z</time></trkpt><trkpt lat="39.54184028350889" lon="8.646514243812437"><ele>101.0</ele><time>2026-03-19T14:39:29Z</time></trkpt><trkpt lat="39.541907385473564" lon="8.646516802053272"><ele>101.0</ele><time>2026-03-19T14:39:33Z</time></trkpt><trkpt lat="39.54198101170379" lon="8.646492887267096"><ele>101.0</ele><time>2026-03-19T14:39:37Z</time></trkpt><trkpt lat="39.5420486740478" lon="8.646483872244918"><ele>101.0</ele><time>2026-03-19T14:39:41Z</time></trkpt><trkpt lat="39.54211443976126" lon="8.646488683148938"><ele>101.0</ele><time>2026-03-19T14:39:44Z</time></trkpt><trkpt lat="39.542178672609246" lon="8.646458698857328"><ele>101.0</ele><time>2026-03-19T14:40:00Z</time></trkpt><trkpt lat="39.54224718117787" lon="8.646472698908447"><ele>101.0</ele><time>2026-03-19T14:40:03.999Z</time></trkpt><trkpt lat="39.54232213828416" lon="8.646473177043505"><ele>101.0</ele><time>2026-03-19T14:40:08.999Z</time></trkpt><trkpt lat="39.542391841034004" lon="8.646492218688536"><ele>101.0</ele><time>2026-03-19T14:40:15.999Z</time></trkpt><trkpt lat="39.5424669229148" lon="8.646516577209791"><ele>101.0</ele><time>2026-03-19T14:40:32.999Z</time></trkpt><trkpt lat="39.542543054450036" lon="8.646502283492147"><ele>101.0</ele><time>2026-03-19T14:40:37.999Z</time></trkpt><trkpt lat="39.54263634415207" lon="8.64646066662663"><ele>100.99999999999999</ele><time>2026-03-19T14:40:41.999Z</time></trkpt><trkpt lat="39.54272652880967" lon="8.646477964195206"><ele>101.0</ele><time>2026-03-19T14:40:44.999Z</time></trkpt><trkpt lat="39.54280031779618" lon="8.646452488478287"><ele>101.0</ele><time>2026-03-19T14:40:47.999Z</time></trkpt><trkpt lat="39.54287419904514" lon="8.646446717933479"><ele>101.0</ele><time>2026-03-19T14:40:50.999Z</time></trkpt><trkpt lat="39.542948158991216" lon="8.646438108494378"><ele>100.99999999999999</ele><time>2026-03-19T14:40:54.999Z</time></trkpt><trkpt lat="39.54301367615637" lon="8.646400850032073"><ele>101.0</ele><time>2026-03-19T14:40:57.999Z</time></trkpt><trkpt lat="39.54308835321563" lon="8.646375177653626"><ele>100.71428571428571</ele><time>2026-03-19T14:41:01.999Z</time></trkpt><trkpt lat="39.543168743604056" lon="8.646362513308775"><ele>100.42857142857142</ele><time>2026-03-19T14:41:05.999Z</time></trkpt><trkpt lat="39.5432328447387" lon="8.646379049878396"><ele>100.14285714285714</ele><time>2026-03-19T14:41:08.999Z</time></trkpt><trkpt lat="39.5432968121701" lon="8.646384334666287"><ele>99.85714285714286</ele><time>2026-03-19T14:41:11.999Z</time></trkpt><trkpt lat="39.5433740079873" lon="8.64640411875473"><ele>99.57142857142857</ele><time>2026-03-19T14:41:14.999Z</time></trkpt><trkpt lat="39.54345075426634" lon="8.646430111589174"><ele>99.28571428571429</ele><time>2026-03-19T14:41:17.999Z</time></trkpt><trkpt lat="39.5435189972195" lon="8.646451413142053"><ele>99.0</ele><time>2026-03-19T14:41:20.999Z</time></trkpt><trkpt lat="39.5435921933807" lon="8.646446122411213"><ele>99.0</ele><time>2026-03-19T14:41:24.999Z</time></trkpt><trkpt lat="39.54365194278189" lon="8.646408024610544"><ele>99.0</ele><time>2026-03-19T14:41:28.999Z</time></trkpt><trkpt lat="39.54367679706963" lon="8.64631480269881"><ele>99.0</ele><time>2026-03-19T14:41:31.999Z</time></trkpt><trkpt lat="39.5436998648707" lon="8.646227465751153"><ele>99.0</ele><time>2026-03-19T14:41:34.999Z</time></trkpt><trkpt lat="39.54370199516149" lon="8.646141904907228"><ele>99.0</ele><time>2026-03-19T14:41:37.999Z</time></trkpt><trkpt lat="39.54370039653705" lon="8.646035091192523"><ele>99.0</ele><time>2026-03-19T14:41:41.999Z</time></trkpt><trkpt lat="39.54371594215884" lon="8.645950660922097"><ele>99.0</ele><time>2026-03-19T14:41:44.999Z</time></trkpt><trkpt lat="39.543711001290376" lon="8.645856683670148"><ele>99.5</ele><time>2026-03-19T14:41:48.999Z</time></trkpt><trkpt lat="39.54370195525888" lon="8.64573444843852"><ele>100.0</ele><time>2026-03-19T14:41:51.999Z</time></trkpt><trkpt lat="39.54369545778686" lon="8.645610504785942"><ele>100.5</ele><time>2026-03-19T14:41:54.999Z</time></trkpt><trkpt lat="39.543703650471436" lon="8.645505328409097"><ele>101.0</ele><time>2026-03-19T14:41:56.999Z</time></trkpt><trkpt lat="39.54371341665582" lon="8.64540494224969"><ele>101.5</ele><time>2026-03-19T14:41:58.999Z</time></trkpt><trkpt lat="39.5437230436372" lon="8.645291127611161"><ele>102.0</ele><time>2026-03-19T14:42:01.999Z</time></trkpt><trkpt lat="39.543742669792096" lon="8.645201537318473"><ele>102.16666666666667</ele><time>2026-03-19T14:42:06.999Z</time></trkpt><trkpt lat="39.54374936750811" lon="8.645117527329795"><ele>102.33333333333334</ele><time>2026-03-19T14:42:11.999Z</time></trkpt><trkpt lat="39.54375444216985" lon="8.64501741110945"><ele>102.5</ele><time>2026-03-19T14:42:17.999Z</time></trkpt><trkpt lat="39.54378583149153" lon="8.64491901071898"><ele>102.66666666666667</ele><time>2026-03-19T14:42:21.999Z</time></trkpt><trkpt lat="39.54379809391818" lon="8.644834142497402"><ele>102.83333333333334</ele><time>2026-03-19T14:42:25.999Z</time></trkpt><trkpt lat="39.54386516810485" lon="8.64474871010542"><ele>103.0</ele><time>2026-03-19T14:43:05.999Z</time></trkpt><trkpt lat="39.54394403545933" lon="8.644767324246894"><ele>103.00000000000001</ele><time>2026-03-19T14:43:12.998Z</time></trkpt><trkpt lat="39.544028353209505" lon="8.64478290581577"><ele>103.0</ele><time>2026-03-19T14:43:15.998Z</time></trkpt><trkpt lat="39.54408958112525" lon="8.64482432303202"><ele>103.0</ele><time>2026-03-19T14:43:18.998Z</time></trkpt><trkpt lat="39.5441660318463" lon="8.644862326186187"><ele>103.0</ele><time>2026-03-19T14:43:22.998Z</time></trkpt><trkpt lat="39.544231672371005" lon="8.644845768141632"><ele>103.00000000000001</ele><time>2026-03-19T14:43:25.998Z</time></trkpt><trkpt lat="39.54429510924054" lon="8.64479490964613"><ele>103.0</ele><time>2026-03-19T14:43:29.998Z</time></trkpt><trkpt lat="39.54433980997962" lon="8.644709072847377"><ele>103.00000000000001</ele><time>2026-03-19T14:43:34.998Z</time></trkpt><trkpt lat="39.54440789356325" lon="8.644652568632765"><ele>103.0</ele><time>2026-03-19T14:43:38.998Z</time></trkpt><trkpt lat="39.544485999648664" lon="8.644634789322467"><ele>103.0</ele><time>2026-03-19T14:43:43.998Z</time></trkpt><trkpt lat="39.54456650436435" lon="8.644629705539005"><ele>103.0</ele><time>2026-03-19T14:43:47.998Z</time></trkpt><trkpt lat="39.544634002516645" lon="8.644637685337011"><ele>103.00000000000001</ele><time>2026-03-19T14:43:51.998Z</time></trkpt><trkpt lat="39.54471412553362" lon="8.644644121022747"><ele>103.0</ele><time>2026-03-19T14:43:55.998Z</time></trkpt><trkpt lat="39.54478376730093" lon="8.64465889771672"><ele>103.00000000000001</ele><time>2026-03-19T14:43:59.998Z</time></trkpt><trkpt lat="39.54486335952874" lon="8.644656730418415"><ele>103.0</ele><time>2026-03-19T14:44:04.998Z</time></trkpt><trkpt lat="39.544942357889475" lon="8.644688958624311"><ele>103.0</ele><time>2026-03-19T14:44:08.998Z</time></trkpt><trkpt lat="39.544997533113886" lon="8.644768745341938"><ele>103.0</ele><time>2026-03-19T14:44:12.998Z</time></trkpt><trkpt lat="39.5450789004191" lon="8.644784700877215"><ele>103.00000000000001</ele><time>2026-03-19T14:44:16.998Z</time></trkpt><trkpt lat="39.54514658635954" lon="8.644771601071843"><ele>103.0</ele><time>2026-03-19T14:44:19.998Z</time></trkpt><trkpt lat="39.5452307867628" lon="8.644759025666119"><ele>103.0</ele><time>2026-03-19T14:44:23.998Z</time></trkpt><trkpt lat="39.54530607176668" lon="8.644751036561374"><ele>103.0</ele><time>2026-03-19T14:44:27Z</time></trkpt><trkpt lat="39.545375074241385" lon="8.644741151529303"><ele>103.0</ele><time>2026-03-19T14:44:29Z</time></trkpt><trkpt lat="39.5454757007525" lon="8.64472841989411"><ele>103.0</ele><time>2026-03-19T14:44:31Z</time></trkpt><trkpt lat="39.54558045837111" lon="8.644706749428803"><ele>103.0</ele><time>2026-03-19T14:44:33Z</time></trkpt><trkpt lat="39.54568022735757" lon="8.644671820531691"><ele>103.16666666666667</ele><time>2026-03-19T14:44:35Z</time></trkpt><trkpt lat="39.545771279566786" lon="8.64464322397996"><ele>103.33333333333334</ele><time>2026-03-19T14:44:37Z</time></trkpt><trkpt lat="39.54585916267222" lon="8.64462607298638"><ele>103.5</ele><time>2026-03-19T14:44:39Z</time></trkpt><trkpt lat="39.545932227158" lon="8.644620945558522"><ele>103.66666666666666</ele><time>2026-03-19T14:44:42Z</time></trkpt><trkpt lat="39.54596142921125" lon="8.644697636215689"><ele>103.83333333333333</ele><time>2026-03-19T14:44:49Z</time></trkpt><trkpt lat="39.54597513276068" lon="8.644798668687253"><ele>104.0</ele><time>2026-03-19T14:44:53Z</time></trkpt><trkpt lat="39.54693975596478" lon="8.644405918297714"><ele>103.6</ele><time>2026-03-19T14:50:58.998Z</time></trkpt><trkpt lat="39.54689879059384" lon="8.644549736251989"><ele>103.2</ele><time>2026-03-19T14:51:35.999Z</time></trkpt><trkpt lat="39.546843883324215" lon="8.644603795175337"><ele>102.8</ele><time>2026-03-19T14:51:39.999Z</time></trkpt><trkpt lat="39.54679467083607" lon="8.64470576386658"><ele>102.39999999999999</ele><time>2026-03-19T14:51:41.999Z</time></trkpt><trkpt lat="39.54674191586906" lon="8.644610707041155"><ele>102.0</ele><time>2026-03-19T14:51:48Z</time></trkpt><trkpt lat="39.546677211768944" lon="8.644539093651167"><ele>102.0</ele><time>2026-03-19T14:51:51Z</time></trkpt><trkpt lat="39.546614305519434" lon="8.64451090416538"><ele>102.0</ele><time>2026-03-19T14:51:54Z</time></trkpt><trkpt lat="39.546522984615585" lon="8.644475901400968"><ele>102.0</ele><time>2026-03-19T14:51:57Z</time></trkpt><trkpt lat="39.546433803227785" lon="8.644488215990393"><ele>102.0</ele><time>2026-03-19T14:51:59Z</time></trkpt><trkpt lat="39.54635811436887" lon="8.644485104732551"><ele>102.0</ele><time>2026-03-19T14:52:04Z</time></trkpt><trkpt lat="39.54625990192642" lon="8.64446365594739"><ele>102.0</ele><time>2026-03-19T14:52:08Z</time></trkpt><trkpt lat="39.54618106350583" lon="8.644456415551732"><ele>102.33333333333333</ele><time>2026-03-19T14:52:13Z</time></trkpt><trkpt lat="39.546114117895854" lon="8.644492593750114"><ele>102.66666666666666</ele><time>2026-03-19T14:52:15Z</time></trkpt><trkpt lat="39.546003029054745" lon="8.644544946123936"><ele>103.0</ele><time>2026-03-19T14:52:17Z</time></trkpt><trkpt lat="39.54592733627459" lon="8.64458137085754"><ele>103.33333333333333</ele><time>2026-03-19T14:52:18Z</time></trkpt><trkpt lat="39.54584415175892" lon="8.644612920879068"><ele>103.66666666666666</ele><time>2026-03-19T14:52:19Z</time></trkpt><trkpt lat="39.54575746688269" lon="8.644636336768341"><ele>104.0</ele><time>2026-03-19T14:52:20Z</time></trkpt><trkpt lat="39.545674209810656" lon="8.644662725246533"><ele>104.0</ele><time>2026-03-19T14:52:21Z</time></trkpt><trkpt lat="39.54558786176721" lon="8.644696899347869"><ele>104.0</ele><time>2026-03-19T14:52:22Z</time></trkpt><trkpt lat="39.545505250714264" lon="8.644739038415567"><ele>104.0</ele><time>2026-03-19T14:52:23Z</time></trkpt><trkpt lat="39.54543954565908" lon="8.644750754432922"><ele>104.0</ele><time>2026-03-19T14:52:24Z</time></trkpt><trkpt lat="39.5453360944601" lon="8.6447469776974"><ele>104.0</ele><time>2026-03-19T14:52:26Z</time></trkpt><trkpt lat="39.54522684191225" lon="8.644758335689026"><ele>104.0</ele><time>2026-03-19T14:52:28Z</time></trkpt><trkpt lat="39.545119004727546" lon="8.644706298045453"><ele>104.0</ele><time>2026-03-19T14:52:30Z</time></trkpt><trkpt lat="39.54503186273828" lon="8.644591132738253"><ele>104.0</ele><time>2026-03-19T14:52:32Z</time></trkpt><trkpt lat="39.54499420787859" lon="8.644523101249396"><ele>104.0</ele><time>2026-03-19T14:52:33Z</time></trkpt><trkpt lat="39.544924785126476" lon="8.644399769934417"><ele>104.0</ele><time>2026-03-19T14:52:35Z</time></trkpt><trkpt lat="39.54487037225984" lon="8.644281506576599"><ele>104.0</ele><time>2026-03-19T14:52:37Z</time></trkpt><trkpt lat="39.544810965832156" lon="8.644156463495056"><ele>104.0</ele><time>2026-03-19T14:52:39Z</time></trkpt><trkpt lat="39.54474812593648" lon="8.644035592067812"><ele>104.0</ele><time>2026-03-19T14:52:41Z</time></trkpt><trkpt lat="39.544684058690024" lon="8.64391932534009"><ele>104.0</ele><time>2026-03-19T14:52:43Z</time></trkpt><trkpt lat="39.54462817382324" lon="8.643810468552262"><ele>104.0</ele><time>2026-03-19T14:52:45Z</time></trkpt><trkpt lat="39.54457965665203" lon="8.643706959239372"><ele>104.14285714285714</ele><time>2026-03-19T14:52:47Z</time></trkpt><trkpt lat="39.54454088641141" lon="8.64362324765863"><ele>104.28571428571429</ele><time>2026-03-19T14:52:49Z</time></trkpt><trkpt lat="39.54451142056315" lon="8.64352951836391"><ele>104.42857142857143</ele><time>2026-03-19T14:52:52Z</time></trkpt><trkpt lat="39.544489413095555" lon="8.64344184671025"><ele>104.57142857142857</ele><time>2026-03-19T14:52:55Z</time></trkpt><trkpt lat="39.54447505006806" lon="8.643339876768946"><ele>104.71428571428572</ele><time>2026-03-19T14:52:57Z</time></trkpt><trkpt lat="39.544416023526985" lon="8.64327667228764"><ele>104.85714285714286</ele><time>2026-03-19T14:52:59Z</time></trkpt><trkpt lat="39.5443551514422" lon="8.643306626047762"><ele>105.0</ele><time>2026-03-19T14:53:01Z</time></trkpt><trkpt lat="39.54427297680209" lon="8.643401987969861"><ele>105.0</ele><time>2026-03-19T14:53:03Z</time></trkpt></trkseg><trkseg><trkpt lat="39.5458619416958" lon="8.644717581887761"><ele>104.0</ele><time>2026-03-27T20:09:12.743Z</time></trkpt><trkpt lat="39.54580376242774" lon="8.644675886867976"><ele>104.0</ele><time>2026-03-27T20:09:32.743Z</time></trkpt><trkpt lat="39.54574178084352" lon="8.644700638482348"><ele>104.0</ele><time>2026-03-27T20:09:42.743Z</time></trkpt><trkpt lat="39.54565377401774" lon="8.644794610312488"><ele>104.0</ele><time>2026-03-27T20:09:43.743Z</time></trkpt><trkpt lat="39.54562794339326" lon="8.644719996787499"><ele>104.0</ele><time>2026-03-27T20:10:06.992Z</time></trkpt><trkpt lat="39.54563946328812" lon="8.644637897944984"><ele>104.0</ele><time>2026-03-27T20:10:42.992Z</time></trkpt><trkpt lat="39.545680755765964" lon="8.64457208165571"><ele>104.0</ele><time>2026-03-27T20:10:53.992Z</time></trkpt><trkpt lat="39.54573791818557" lon="8.644506497437517"><ele>104.0</ele><time>2026-03-27T20:10:59.992Z</time></trkpt><trkpt lat="39.54579014794405" lon="8.644453036045531"><ele>104.0</ele><time>2026-03-27T20:11:02.992Z</time></trkpt><trkpt lat="39.546055809985" lon="8.644703399512837"><ele>104.0</ele><time>2026-03-27T20:12:40.139Z</time></trkpt><trkpt lat="39.545724084102346" lon="8.644792645037676"><ele>104.0</ele><time>2026-03-27T20:12:55.155Z</time></trkpt><trkpt lat="39.5460241509312" lon="8.644928262910824"><ele>104.0</ele><time>2026-03-27T20:17:25.992Z</time></trkpt><trkpt lat="39.54604528296581" lon="8.644839441727958"><ele>104.0</ele><time>2026-03-27T20:17:31.001Z</time></trkpt><trkpt lat="39.546039943732325" lon="8.644758068778511"><ele>104.0</ele><time>2026-03-27T20:17:34Z</time></trkpt><trkpt lat="39.546039722939774" lon="8.644673783766407"><ele>104.0</ele><time>2026-03-27T20:17:37Z</time></trkpt><trkpt lat="39.54604330361547" lon="8.644585428543248"><ele>104.0</ele><time>2026-03-27T20:17:51Z</time></trkpt><trkpt lat="39.546073091548045" lon="8.644513450210097"><ele>104.0</ele><time>2026-03-27T20:18:09Z</time></trkpt><trkpt lat="39.54613852657408" lon="8.644501482456874"><ele>104.0</ele><time>2026-03-27T20:18:16Z</time></trkpt><trkpt lat="39.5462001237293" lon="8.64447251999833"><ele>104.0</ele><time>2026-03-27T20:18:21Z</time></trkpt><trkpt lat="39.546258722367355" lon="8.644437250645895"><ele>104.0</ele><time>2026-03-27T20:18:25Z</time></trkpt><trkpt lat="39.5463307856193" lon="8.644380821916448"><ele>104.0</ele><time>2026-03-27T20:18:29Z</time></trkpt><trkpt lat="39.54639416776442" lon="8.644324889492683"><ele>104.0</ele><time>2026-03-27T20:18:32Z</time></trkpt><trkpt lat="39.546448540564775" lon="8.644265731013368"><ele>104.0</ele><time>2026-03-27T20:18:36Z</time></trkpt><trkpt lat="39.546444718063476" lon="8.644177116897149"><ele>104.0</ele><time>2026-03-27T20:18:39Z</time></trkpt><trkpt lat="39.5464620999099" lon="8.644079395487793"><ele>104.0</ele><time>2026-03-27T20:18:50Z</time></trkpt><trkpt lat="39.54644631387972" lon="8.643985494591004"><ele>104.0</ele><time>2026-03-27T20:18:54Z</time></trkpt><trkpt lat="39.546431705231974" lon="8.643902552518442"><ele>104.0</ele><time>2026-03-27T20:18:58Z</time></trkpt><trkpt lat="39.54641633621182" lon="8.64381644353532"><ele>104.0</ele><time>2026-03-27T20:19:04Z</time></trkpt><trkpt lat="39.546383408992774" lon="8.643744643304181"><ele>104.0</ele><time>2026-03-27T20:19:12Z</time></trkpt><trkpt lat="39.54632734483091" lon="8.643702767201425"><ele>104.0</ele><time>2026-03-27T20:19:24Z</time></trkpt><trkpt lat="39.54628849211842" lon="8.643773091901668"><ele>104.0</ele><time>2026-03-27T20:19:32Z</time></trkpt><trkpt lat="39.54622753903709" lon="8.643822518953561"><ele>104.0</ele><time>2026-03-27T20:19:39Z</time></trkpt><trkpt lat="39.54619493720415" lon="8.643898794191964"><ele>104.0</ele><time>2026-03-27T20:19:47Z</time></trkpt><trkpt lat="39.54618770204138" lon="8.64399489212234"><ele>104.0</ele><time>2026-03-27T20:20:13Z</time></trkpt><trkpt lat="39.54577962256924" lon="8.644871981741607"><ele>104.0</ele><time>2026-03-27T20:21:50.439Z</time></trkpt><trkpt lat="39.54575981569938" lon="8.645113490756183"><ele>104.0</ele><time>2026-03-27T20:21:50.907Z</time></trkpt><trkpt lat="39.54569924681155" lon="8.64503664507968"><ele>104.0</ele><time>2026-03-27T20:21:58.726Z</time></trkpt><trkpt lat="39.546093740975024" lon="8.644383159111497"><ele>103.99999999999999</ele><time>2026-03-27T20:22:00.999Z</time></trkpt><trkpt lat="39.546036623512364" lon="8.644433647384592"><ele>104.0</ele><time>2026-03-27T20:22:15.999Z</time></trkpt><trkpt lat="39.54595363299606" lon="8.644467765133358"><ele>104.0</ele><time>2026-03-27T20:22:19.999Z</time></trkpt><trkpt lat="39.54588725277948" lon="8.644465263054363"><ele>104.0</ele><time>2026-03-27T20:22:21.999Z</time></trkpt><trkpt lat="39.545830631233635" lon="8.644396614554177"><ele>103.99999999999999</ele><time>2026-03-27T20:22:38.999Z</time></trkpt><trkpt lat="39.54586250033023" lon="8.644309563610532"><ele>104.0</ele><time>2026-03-27T20:22:42.999Z</time></trkpt><trkpt lat="39.545852955400875" lon="8.644209318655834"><ele>103.99999999999999</ele><time>2026-03-27T20:22:45.999Z</time></trkpt><trkpt lat="39.54578327872858" lon="8.64413889894943"><ele>104.0</ele><time>2026-03-27T20:23:00.999Z</time></trkpt><trkpt lat="39.5456912862597" lon="8.644129502884889"><ele>104.0</ele><time>2026-03-27T20:23:04.999Z</time></trkpt><trkpt lat="39.54563096718487" lon="8.644104632295122"><ele>104.0</ele><time>2026-03-27T20:23:07.999Z</time></trkpt><trkpt lat="39.54557055236466" lon="8.644062050930689"><ele>103.99999999999999</ele><time>2026-03-27T20:23:15.999Z</time></trkpt><trkpt lat="39.545585869063025" lon="8.643967887759606"><ele>104.0</ele><time>2026-03-27T20:23:23.999Z</time></trkpt><trkpt lat="39.5456108593363" lon="8.643862306944513"><ele>104.0</ele><time>2026-03-27T20:23:26.999Z</time></trkpt><trkpt lat="39.545847111598704" lon="8.643766274002065"><ele>104.0</ele><time>2026-03-27T20:23:54Z</time></trkpt><trkpt lat="39.54604438986225" lon="8.643747977084338"><ele>104.0</ele><time>2026-03-27T20:24:20Z</time></trkpt><trkpt lat="39.54609270504825" lon="8.643834218080976"><ele>104.0</ele><time>2026-03-27T20:24:24Z</time></trkpt><trkpt lat="39.54615219672157" lon="8.643913906649063"><ele>104.0</ele><time>2026-03-27T20:24:28Z</time></trkpt><trkpt lat="39.54616476874437" lon="8.644022227250197"><ele>104.0</ele><time>2026-03-27T20:24:34.009Z</time></trkpt><trkpt lat="39.546108375167044" lon="8.644071052429252"><ele>104.0</ele><time>2026-03-27T20:24:36.008Z</time></trkpt><trkpt lat="39.54608173199402" lon="8.644146642928279"><ele>104.0</ele><time>2026-03-27T20:24:42.006Z</time></trkpt><trkpt lat="39.546070213055444" lon="8.644227091940403"><ele>104.0</ele><time>2026-03-27T20:24:47.004Z</time></trkpt><trkpt lat="39.54608598044521" lon="8.64431864153576"><ele>104.0</ele><time>2026-03-27T20:24:51.003Z</time></trkpt><trkpt lat="39.546138169042344" lon="8.644393603966714"><ele>104.0</ele><time>2026-03-27T20:24:57.002Z</time></trkpt><trkpt lat="39.546180355396885" lon="8.64446139521619"><ele>104.0</ele><time>2026-03-27T20:25:00.002Z</time></trkpt><trkpt lat="39.54623898335052" lon="8.644542211979772"><ele>102.0</ele><time>2026-03-27T20:25:03.002Z</time></trkpt></trkseg></trk></gpx>